Search for airport 
image banner adimage banner adimage banner ad
image banner ad

NV72 - Sweetwater (Usmc)

Located in Wellington, United States

ICAO - NV72, IATA -

Data provided by Airmate  

General information

Coordinates: N38°30'54" W119°12'49"
Elevation is 6837 feet MSL.
Magnetic variation is 15° East
View others Airports in Nevada

Operational data

Special qualification required
Current time UTC:
Current local time:
Weather at : KHTH - Hawthorne Industrial ( 51 km )
METAR: KHTH 130235Z AUTO 32013KT 10SM CLR 31/02 A2989 RMK A01
View NOTAMs / SUP AIP / TFR affecting this airport [VIEW]
Communications frequencies: [VIEW]

Runways:

RWY identifierQFULength (ft)Width (ft)SurfaceLDA (ft)
18370060EARTH
36370060EARTH

Airport contact information

Address: Wellington United States

Satellite view of NV72